Abingdon, Iowa
Current Conditions -  °F | °C
As of 8:15 PM on Friday 28 Nov 2014 (Local Time) from KFFL Reporting Station
Clear Clear  
Wind Chill: -2°   Ceiling: Unl
Heat Index:   Visibility: 10mi
Dew Point:   Wind: 9mph
Humidity: 87%   Direction: 140°SE
Pressure: 29.78"   Gusts: NA
Location:  40.9883°N, 92.1215°W
Report Text: KFFL 290215Z AUTO 14008KT 10SM CLR 02/M00 A2978 RMK AO2
Loading
Personal Weather Stations






























Interactive Weather Map New forecast layout! Learn more

10-Day Weather Forecast

Advertisements
Track Severe Weather on mobile